sensor_id;sensor_type;location;lat;lon;timestamp;P1;durP1;ratioP1;P2;durP2;ratioP2
9834;SDS011;4956;50.996;13.716;2022-10-31T00:00:00;3.10;;;1.83;;
9834;SDS011;4956;50.996;13.716;2022-10-31T00:03:21;7.90;;;2.08;;
9834;SDS011;4956;50.996;13.716;2022-10-31T00:06:41;5.70;;;2.00;;
9834;SDS011;4956;50.996;13.716;2022-10-31T00:10:01;5.82;;;2.17;;
9834;SDS011;4956;50.996;13.716;2022-10-31T00:13:25;6.03;;;2.22;;
9834;SDS011;4956;50.996;13.716;2022-10-31T00:16:45;5.05;;;1.83;;
9834;SDS011;4956;50.996;13.716;2022-10-31T00:20:06;3.72;;;1.63;;
9834;SDS011;4956;50.996;13.716;2022-10-31T00:23:26;4.00;;;1.83;;
9834;SDS011;4956;50.996;13.716;2022-10-31T00:26:47;5.22;;;1.88;;
9834;SDS011;4956;50.996;13.716;2022-10-31T00:30:07;5.78;;;2.05;;
9834;SDS011;4956;50.996;13.716;2022-10-31T00:33:28;5.78;;;2.20;;
9834;SDS011;4956;50.996;13.716;2022-10-31T00:36:49;3.90;;;2.58;;
9834;SDS011;4956;50.996;13.716;2022-10-31T00:40:09;5.55;;;2.00;;
9834;SDS011;4956;50.996;13.716;2022-10-31T00:43:30;6.18;;;2.20;;
9834;SDS011;4956;50.996;13.716;2022-10-31T00:46:51;4.10;;;1.92;;
9834;SDS011;4956;50.996;13.716;2022-10-31T00:50:15;3.83;;;2.08;;
9834;SDS011;4956;50.996;13.716;2022-10-31T00:53:36;3.20;;;1.98;;
9834;SDS011;4956;50.996;13.716;2022-10-31T00:56:56;5.43;;;2.03;;
9834;SDS011;4956;50.996;13.716;2022-10-31T01:00:17;4.22;;;1.90;;
9834;SDS011;4956;50.996;13.716;2022-10-31T01:03:38;5.10;;;1.83;;
9834;SDS011;4956;50.996;13.716;2022-10-31T01:06:58;4.28;;;1.90;;
9834;SDS011;4956;50.996;13.716;2022-10-31T01:10:19;5.30;;;2.00;;
9834;SDS011;4956;50.996;13.716;2022-10-31T01:13:39;5.47;;;2.13;;
9834;SDS011;4956;50.996;13.716;2022-10-31T01:17:00;5.68;;;1.98;;
9834;SDS011;4956;50.996;13.716;2022-10-31T01:20:20;6.00;;;2.00;;
9834;SDS011;4956;50.996;13.716;2022-10-31T01:23:41;4.72;;;1.77;;
9834;SDS011;4956;50.996;13.716;2022-10-31T01:27:01;6.38;;;2.08;;
9834;SDS011;4956;50.996;13.716;2022-10-31T01:30:25;4.00;;;1.80;;
9834;SDS011;4956;50.996;13.716;2022-10-31T01:33:46;4.53;;;1.77;;
9834;SDS011;4956;50.996;13.716;2022-10-31T01:37:06;6.15;;;2.70;;
9834;SDS011;4956;50.996;13.716;2022-10-31T01:40:29;8.57;;;2.38;;
9834;SDS011;4956;50.996;13.716;2022-10-31T01:43:54;4.25;;;2.15;;
9834;SDS011;4956;50.996;13.716;2022-10-31T01:47:16;4.28;;;2.30;;
9834;SDS011;4956;50.996;13.716;2022-10-31T01:50:39;4.53;;;2.13;;
9834;SDS011;4956;50.996;13.716;2022-10-31T01:54:01;5.78;;;2.15;;
9834;SDS011;4956;50.996;13.716;2022-10-31T01:57:24;5.50;;;2.05;;
9834;SDS011;4956;50.996;13.716;2022-10-31T02:00:46;3.50;;;2.20;;
9834;SDS011;4956;50.996;13.716;2022-10-31T02:04:08;4.47;;;1.92;;
9834;SDS011;4956;50.996;13.716;2022-10-31T02:07:34;3.50;;;2.05;;
9834;SDS011;4956;50.996;13.716;2022-10-31T02:10:58;4.95;;;2.00;;
9834;SDS011;4956;50.996;13.716;2022-10-31T02:14:23;12.43;;;2.40;;
9834;SDS011;4956;50.996;13.716;2022-10-31T02:17:45;5.95;;;2.28;;
9834;SDS011;4956;50.996;13.716;2022-10-31T02:32:17;7.13;;;2.08;;
9834;SDS011;4956;50.996;13.716;2022-10-31T02:35:54;4.32;;;2.22;;
9834;SDS011;4956;50.996;13.716;2022-10-31T02:43:00;3.55;;;1.80;;
9834;SDS011;4956;50.996;13.716;2022-10-31T02:50:13;7.35;;;2.35;;
9834;SDS011;4956;50.996;13.716;2022-10-31T02:53:36;5.13;;;2.20;;
9834;SDS011;4956;50.996;13.716;2022-10-31T02:57:01;3.13;;;1.90;;
9834;SDS011;4956;50.996;13.716;2022-10-31T03:00:24;5.13;;;2.08;;
9834;SDS011;4956;50.996;13.716;2022-10-31T03:03:58;5.30;;;2.25;;
9834;SDS011;4956;50.996;13.716;2022-10-31T03:07:25;3.67;;;2.00;;
9834;SDS011;4956;50.996;13.716;2022-10-31T03:14:24;3.60;;;1.90;;
9834;SDS011;4956;50.996;13.716;2022-10-31T03:17:54;4.28;;;2.00;;
9834;SDS011;4956;50.996;13.716;2022-10-31T03:21:18;6.40;;;2.15;;
9834;SDS011;4956;50.996;13.716;2022-10-31T03:24:41;3.85;;;1.67;;
9834;SDS011;4956;50.996;13.716;2022-10-31T03:28:02;4.03;;;2.00;;
9834;SDS011;4956;50.996;13.716;2022-10-31T03:31:28;4.18;;;2.45;;
9834;SDS011;4956;50.996;13.716;2022-10-31T03:34:52;3.47;;;1.90;;
9834;SDS011;4956;50.996;13.716;2022-10-31T03:38:15;4.95;;;2.30;;
9834;SDS011;4956;50.996;13.716;2022-10-31T03:41:37;3.53;;;2.15;;
9834;SDS011;4956;50.996;13.716;2022-10-31T03:45:17;5.25;;;2.50;;
9834;SDS011;4956;50.996;13.716;2022-10-31T03:48:43;5.65;;;2.25;;
9834;SDS011;4956;50.996;13.716;2022-10-31T03:55:52;5.57;;;2.10;;
9834;SDS011;4956;50.996;13.716;2022-10-31T03:59:26;3.80;;;2.40;;
9834;SDS011;4956;50.996;13.716;2022-10-31T04:02:51;6.32;;;2.28;;
9834;SDS011;4956;50.996;13.716;2022-10-31T04:06:16;4.78;;;2.20;;
9834;SDS011;4956;50.996;13.716;2022-10-31T04:09:38;7.25;;;2.17;;
9834;SDS011;4956;50.996;13.716;2022-10-31T04:13:05;4.25;;;2.10;;
9834;SDS011;4956;50.996;13.716;2022-10-31T04:16:39;5.93;;;2.20;;
9834;SDS011;4956;50.996;13.716;2022-10-31T04:20:00;5.32;;;2.03;;
9834;SDS011;4956;50.996;13.716;2022-10-31T04:23:24;8.35;;;2.03;;
9834;SDS011;4956;50.996;13.716;2022-10-31T04:26:47;5.93;;;2.05;;
9834;SDS011;4956;50.996;13.716;2022-10-31T04:30:07;5.07;;;2.45;;
9834;SDS011;4956;50.996;13.716;2022-10-31T04:33:31;5.45;;;2.10;;
9834;SDS011;4956;50.996;13.716;2022-10-31T04:36:51;5.75;;;2.20;;
9834;SDS011;4956;50.996;13.716;2022-10-31T04:40:12;3.90;;;1.85;;
9834;SDS011;4956;50.996;13.716;2022-10-31T04:43:51;4.28;;;2.10;;
9834;SDS011;4956;50.996;13.716;2022-10-31T04:47:12;5.20;;;2.22;;
9834;SDS011;4956;50.996;13.716;2022-10-31T04:50:33;6.55;;;1.98;;
9834;SDS011;4956;50.996;13.716;2022-10-31T04:53:54;5.10;;;2.40;;
9834;SDS011;4956;50.996;13.716;2022-10-31T04:57:39;4.45;;;2.42;;
9834;SDS011;4956;50.996;13.716;2022-10-31T05:01:01;6.78;;;2.30;;
9834;SDS011;4956;50.996;13.716;2022-10-31T05:04:21;3.78;;;2.20;;
9834;SDS011;4956;50.996;13.716;2022-10-31T05:07:42;6.03;;;2.30;;
9834;SDS011;4956;50.996;13.716;2022-10-31T05:11:04;3.35;;;2.25;;
9834;SDS011;4956;50.996;13.716;2022-10-31T05:14:25;4.93;;;2.33;;
9834;SDS011;4956;50.996;13.716;2022-10-31T05:18:20;6.95;;;2.63;;
9834;SDS011;4956;50.996;13.716;2022-10-31T05:22:12;5.30;;;2.40;;
9834;SDS011;4956;50.996;13.716;2022-10-31T05:25:33;5.72;;;2.30;;
9834;SDS011;4956;50.996;13.716;2022-10-31T05:28:57;5.38;;;2.90;;
9834;SDS011;4956;50.996;13.716;2022-10-31T05:32:17;3.80;;;2.20;;
9834;SDS011;4956;50.996;13.716;2022-10-31T05:35:56;7.28;;;2.55;;
9834;SDS011;4956;50.996;13.716;2022-10-31T05:39:34;4.22;;;2.45;;
9834;SDS011;4956;50.996;13.716;2022-10-31T05:42:59;7.00;;;2.60;;
9834;SDS011;4956;50.996;13.716;2022-10-31T05:46:19;5.25;;;2.63;;
9834;SDS011;4956;50.996;13.716;2022-10-31T05:50:12;4.65;;;2.55;;
9834;SDS011;4956;50.996;13.716;2022-10-31T05:53:46;4.28;;;2.15;;
9834;SDS011;4956;50.996;13.716;2022-10-31T05:57:07;5.25;;;2.65;;
9834;SDS011;4956;50.996;13.716;2022-10-31T06:00:28;4.47;;;2.40;;
9834;SDS011;4956;50.996;13.716;2022-10-31T06:03:57;4.38;;;2.17;;
9834;SDS011;4956;50.996;13.716;2022-10-31T06:07:18;5.30;;;2.10;;
9834;SDS011;4956;50.996;13.716;2022-10-31T06:10:38;5.72;;;2.55;;
9834;SDS011;4956;50.996;13.716;2022-10-31T06:13:59;4.70;;;2.35;;
9834;SDS011;4956;50.996;13.716;2022-10-31T06:17:27;6.90;;;2.67;;
9834;SDS011;4956;50.996;13.716;2022-10-31T06:21:07;6.25;;;2.67;;
9834;SDS011;4956;50.996;13.716;2022-10-31T06:24:29;6.03;;;2.50;;
9834;SDS011;4956;50.996;13.716;2022-10-31T06:27:56;5.25;;;2.67;;
9834;SDS011;4956;50.996;13.716;2022-10-31T06:31:22;4.57;;;2.60;;
9834;SDS011;4956;50.996;13.716;2022-10-31T06:34:42;6.47;;;3.08;;
9834;SDS011;4956;50.996;13.716;2022-10-31T06:38:04;5.72;;;2.70;;
9834;SDS011;4956;50.996;13.716;2022-10-31T06:41:32;5.93;;;2.67;;
9834;SDS011;4956;50.996;13.716;2022-10-31T06:44:57;5.15;;;2.63;;
9834;SDS011;4956;50.996;13.716;2022-10-31T06:48:19;6.43;;;2.80;;
9834;SDS011;4956;50.996;13.716;2022-10-31T06:52:03;4.63;;;2.55;;
9834;SDS011;4956;50.996;13.716;2022-10-31T06:55:24;7.28;;;2.85;;
9834;SDS011;4956;50.996;13.716;2022-10-31T06:58:45;6.72;;;2.90;;
9834;SDS011;4956;50.996;13.716;2022-10-31T07:02:08;4.85;;;2.50;;
9834;SDS011;4956;50.996;13.716;2022-10-31T07:05:29;5.28;;;2.60;;
9834;SDS011;4956;50.996;13.716;2022-10-31T07:08:50;8.10;;;2.95;;
9834;SDS011;4956;50.996;13.716;2022-10-31T07:12:10;5.68;;;2.95;;
9834;SDS011;4956;50.996;13.716;2022-10-31T07:15:36;10.35;;;2.97;;
9834;SDS011;4956;50.996;13.716;2022-10-31T07:18:58;5.35;;;2.85;;
9834;SDS011;4956;50.996;13.716;2022-10-31T07:22:18;4.82;;;2.67;;
9834;SDS011;4956;50.996;13.716;2022-10-31T07:25:39;6.43;;;2.90;;
9834;SDS011;4956;50.996;13.716;2022-10-31T07:29:08;6.38;;;3.13;;
9834;SDS011;4956;50.996;13.716;2022-10-31T07:32:37;5.28;;;3.08;;
9834;SDS011;4956;50.996;13.716;2022-10-31T07:36:01;6.25;;;3.30;;
9834;SDS011;4956;50.996;13.716;2022-10-31T07:39:24;6.15;;;3.20;;
9834;SDS011;4956;50.996;13.716;2022-10-31T07:42:46;5.70;;;3.03;;
9834;SDS011;4956;50.996;13.716;2022-10-31T07:46:28;6.40;;;2.70;;
9834;SDS011;4956;50.996;13.716;2022-10-31T07:50:07;6.47;;;3.00;;
9834;SDS011;4956;50.996;13.716;2022-10-31T07:53:48;5.82;;;2.83;;
9834;SDS011;4956;50.996;13.716;2022-10-31T07:57:16;6.50;;;3.08;;
9834;SDS011;4956;50.996;13.716;2022-10-31T08:00:37;6.93;;;3.08;;
9834;SDS011;4956;50.996;13.716;2022-10-31T08:03:58;7.25;;;3.22;;
9834;SDS011;4956;50.996;13.716;2022-10-31T08:07:37;5.57;;;2.88;;
9834;SDS011;4956;50.996;13.716;2022-10-31T08:11:00;5.15;;;2.95;;
9834;SDS011;4956;50.996;13.716;2022-10-31T08:14:20;9.23;;;3.97;;
9834;SDS011;4956;50.996;13.716;2022-10-31T08:17:44;5.57;;;3.20;;
9834;SDS011;4956;50.996;13.716;2022-10-31T08:21:05;5.03;;;3.05;;
9834;SDS011;4956;50.996;13.716;2022-10-31T08:24:25;8.27;;;3.10;;
9834;SDS011;4956;50.996;13.716;2022-10-31T08:27:54;6.95;;;3.33;;
9834;SDS011;4956;50.996;13.716;2022-10-31T08:31:17;5.97;;;3.10;;
9834;SDS011;4956;50.996;13.716;2022-10-31T08:34:37;7.93;;;3.70;;
9834;SDS011;4956;50.996;13.716;2022-10-31T08:38:29;5.60;;;3.05;;
9834;SDS011;4956;50.996;13.716;2022-10-31T08:41:50;7.88;;;3.58;;
9834;SDS011;4956;50.996;13.716;2022-10-31T08:45:11;7.70;;;3.75;;
9834;SDS011;4956;50.996;13.716;2022-10-31T08:48:31;9.85;;;3.60;;
9834;SDS011;4956;50.996;13.716;2022-10-31T08:51:52;8.18;;;3.83;;
9834;SDS011;4956;50.996;13.716;2022-10-31T08:55:14;9.57;;;3.97;;
9834;SDS011;4956;50.996;13.716;2022-10-31T08:59:07;10.00;;;4.28;;
9834;SDS011;4956;50.996;13.716;2022-10-31T09:03:08;8.75;;;3.65;;
9834;SDS011;4956;50.996;13.716;2022-10-31T09:06:30;9.95;;;3.85;;
9834;SDS011;4956;50.996;13.716;2022-10-31T09:09:53;9.23;;;3.70;;
9834;SDS011;4956;50.996;13.716;2022-10-31T09:13:17;8.57;;;3.67;;
9834;SDS011;4956;50.996;13.716;2022-10-31T09:16:59;8.15;;;4.22;;
9834;SDS011;4956;50.996;13.716;2022-10-31T09:20:33;7.88;;;4.32;;
9834;SDS011;4956;50.996;13.716;2022-10-31T09:23:56;9.55;;;4.40;;
9834;SDS011;4956;50.996;13.716;2022-10-31T09:27:17;8.07;;;4.20;;
9834;SDS011;4956;50.996;13.716;2022-10-31T09:30:41;12.48;;;4.43;;
9834;SDS011;4956;50.996;13.716;2022-10-31T09:34:01;10.98;;;4.53;;
9834;SDS011;4956;50.996;13.716;2022-10-31T09:37:31;8.80;;;4.40;;
9834;SDS011;4956;50.996;13.716;2022-10-31T09:40:55;8.25;;;4.30;;
9834;SDS011;4956;50.996;13.716;2022-10-31T09:44:35;10.57;;;5.18;;
9834;SDS011;4956;50.996;13.716;2022-10-31T09:48:17;6.80;;;4.78;;
9834;SDS011;4956;50.996;13.716;2022-10-31T09:52:04;11.52;;;4.88;;
9834;SDS011;4956;50.996;13.716;2022-10-31T09:55:41;7.38;;;4.35;;
9834;SDS011;4956;50.996;13.716;2022-10-31T09:59:05;9.85;;;4.90;;
9834;SDS011;4956;50.996;13.716;2022-10-31T10:06:21;8.85;;;5.03;;
9834;SDS011;4956;50.996;13.716;2022-10-31T10:10:13;10.18;;;4.78;;
9834;SDS011;4956;50.996;13.716;2022-10-31T10:21:37;7.50;;;4.40;;
9834;SDS011;4956;50.996;13.716;2022-10-31T10:25:12;8.15;;;4.13;;
9834;SDS011;4956;50.996;13.716;2022-10-31T10:28:36;6.85;;;4.38;;
9834;SDS011;4956;50.996;13.716;2022-10-31T10:31:59;8.70;;;5.25;;
9834;SDS011;4956;50.996;13.716;2022-10-31T10:35:24;9.75;;;5.25;;
9834;SDS011;4956;50.996;13.716;2022-10-31T10:38:53;11.35;;;5.30;;
9834;SDS011;4956;50.996;13.716;2022-10-31T10:42:15;7.97;;;5.13;;
9834;SDS011;4956;50.996;13.716;2022-10-31T10:49:58;11.07;;;5.00;;
9834;SDS011;4956;50.996;13.716;2022-10-31T10:56:59;9.10;;;4.70;;
9834;SDS011;4956;50.996;13.716;2022-10-31T11:00:26;8.45;;;4.95;;
9834;SDS011;4956;50.996;13.716;2022-10-31T11:03:51;11.20;;;4.70;;
9834;SDS011;4956;50.996;13.716;2022-10-31T11:07:12;7.22;;;4.95;;
9834;SDS011;4956;50.996;13.716;2022-10-31T11:10:32;10.95;;;5.22;;
9834;SDS011;4956;50.996;13.716;2022-10-31T11:14:00;9.68;;;4.60;;
9834;SDS011;4956;50.996;13.716;2022-10-31T11:17:28;10.68;;;4.90;;
9834;SDS011;4956;50.996;13.716;2022-10-31T11:20:51;9.30;;;5.40;;
9834;SDS011;4956;50.996;13.716;2022-10-31T11:24:14;15.13;;;5.00;;
9834;SDS011;4956;50.996;13.716;2022-10-31T11:27:35;7.88;;;5.50;;
9834;SDS011;4956;50.996;13.716;2022-10-31T11:30:58;9.80;;;5.70;;
9834;SDS011;4956;50.996;13.716;2022-10-31T11:34:27;10.15;;;5.75;;
9834;SDS011;4956;50.996;13.716;2022-10-31T11:37:52;9.85;;;5.85;;
9834;SDS011;4956;50.996;13.716;2022-10-31T11:44:34;9.80;;;6.10;;
9834;SDS011;4956;50.996;13.716;2022-10-31T11:47:54;10.23;;;5.80;;
9834;SDS011;4956;50.996;13.716;2022-10-31T11:51:20;10.32;;;6.05;;
9834;SDS011;4956;50.996;13.716;2022-10-31T11:54:45;11.30;;;6.70;;
9834;SDS011;4956;50.996;13.716;2022-10-31T11:58:22;13.10;;;6.75;;
9834;SDS011;4956;50.996;13.716;2022-10-31T12:01:48;14.02;;;7.15;;
9834;SDS011;4956;50.996;13.716;2022-10-31T12:08:43;12.80;;;7.38;;
9834;SDS011;4956;50.996;13.716;2022-10-31T12:15:35;13.07;;;6.70;;
9834;SDS011;4956;50.996;13.716;2022-10-31T12:19:04;13.82;;;6.88;;
9834;SDS011;4956;50.996;13.716;2022-10-31T12:22:44;13.68;;;6.90;;
9834;SDS011;4956;50.996;13.716;2022-10-31T12:26:26;10.38;;;6.10;;
9834;SDS011;4956;50.996;13.716;2022-10-31T12:33:46;11.38;;;6.00;;
9834;SDS011;4956;50.996;13.716;2022-10-31T12:48:11;14.85;;;6.82;;
9834;SDS011;4956;50.996;13.716;2022-10-31T12:51:50;11.80;;;6.70;;
9834;SDS011;4956;50.996;13.716;2022-10-31T12:58:56;13.63;;;6.38;;
9834;SDS011;4956;50.996;13.716;2022-10-31T13:02:33;9.75;;;6.68;;
9834;SDS011;4956;50.996;13.716;2022-10-31T13:05:58;11.82;;;6.93;;
9834;SDS011;4956;50.996;13.716;2022-10-31T13:09:25;12.13;;;6.38;;
9834;SDS011;4956;50.996;13.716;2022-10-31T13:12:51;9.90;;;6.47;;
9834;SDS011;4956;50.996;13.716;2022-10-31T13:16:15;18.67;;;6.90;;
9834;SDS011;4956;50.996;13.716;2022-10-31T13:19:38;13.57;;;6.72;;
9834;SDS011;4956;50.996;13.716;2022-10-31T13:23:07;12.52;;;6.93;;
9834;SDS011;4956;50.996;13.716;2022-10-31T13:26:33;13.85;;;6.38;;
9834;SDS011;4956;50.996;13.716;2022-10-31T13:33:26;17.00;;;6.90;;
9834;SDS011;4956;50.996;13.716;2022-10-31T13:47:27;11.68;;;6.88;;
9834;SDS011;4956;50.996;13.716;2022-10-31T13:51:04;13.63;;;8.10;;
9834;SDS011;4956;50.996;13.716;2022-10-31T13:54:34;15.05;;;7.72;;
9834;SDS011;4956;50.996;13.716;2022-10-31T13:57:55;12.15;;;5.82;;
9834;SDS011;4956;50.996;13.716;2022-10-31T14:01:21;10.77;;;6.35;;
9834;SDS011;4956;50.996;13.716;2022-10-31T14:04:46;10.57;;;5.28;;
9834;SDS011;4956;50.996;13.716;2022-10-31T14:08:15;9.70;;;6.18;;
9834;SDS011;4956;50.996;13.716;2022-10-31T14:11:38;12.50;;;6.05;;
9834;SDS011;4956;50.996;13.716;2022-10-31T14:15:00;9.60;;;5.57;;
9834;SDS011;4956;50.996;13.716;2022-10-31T14:18:25;12.45;;;6.03;;
9834;SDS011;4956;50.996;13.716;2022-10-31T14:21:50;9.75;;;5.97;;
9834;SDS011;4956;50.996;13.716;2022-10-31T14:28:51;9.63;;;5.82;;
9834;SDS011;4956;50.996;13.716;2022-10-31T14:47:00;7.43;;;4.95;;
9834;SDS011;4956;50.996;13.716;2022-10-31T14:50:38;9.93;;;5.15;;
9834;SDS011;4956;50.996;13.716;2022-10-31T14:54:02;8.77;;;5.10;;
9834;SDS011;4956;50.996;13.716;2022-10-31T15:00:51;10.50;;;5.40;;
9834;SDS011;4956;50.996;13.716;2022-10-31T15:04:20;7.53;;;5.25;;
9834;SDS011;4956;50.996;13.716;2022-10-31T15:07:50;9.02;;;5.07;;
9834;SDS011;4956;50.996;13.716;2022-10-31T15:11:16;8.18;;;5.30;;
9834;SDS011;4956;50.996;13.716;2022-10-31T15:14:38;9.68;;;5.28;;
9834;SDS011;4956;50.996;13.716;2022-10-31T15:17:58;9.98;;;5.93;;
9834;SDS011;4956;50.996;13.716;2022-10-31T15:21:20;8.85;;;5.53;;
9834;SDS011;4956;50.996;13.716;2022-10-31T15:24:41;10.73;;;5.90;;
9834;SDS011;4956;50.996;13.716;2022-10-31T15:28:12;9.45;;;6.32;;
9834;SDS011;4956;50.996;13.716;2022-10-31T15:31:33;7.90;;;5.85;;
9834;SDS011;4956;50.996;13.716;2022-10-31T15:34:54;9.20;;;5.88;;
9834;SDS011;4956;50.996;13.716;2022-10-31T15:38:18;11.13;;;5.95;;
9834;SDS011;4956;50.996;13.716;2022-10-31T15:41:59;13.02;;;6.32;;
9834;SDS011;4956;50.996;13.716;2022-10-31T15:45:23;11.35;;;6.53;;
9834;SDS011;4956;50.996;13.716;2022-10-31T15:48:45;12.82;;;7.47;;
9834;SDS011;4956;50.996;13.716;2022-10-31T15:55:48;11.02;;;6.80;;
9834;SDS011;4956;50.996;13.716;2022-10-31T15:59:19;10.52;;;6.90;;
9834;SDS011;4956;50.996;13.716;2022-10-31T16:02:42;10.52;;;6.93;;
9834;SDS011;4956;50.996;13.716;2022-10-31T16:06:03;14.18;;;7.18;;
9834;SDS011;4956;50.996;13.716;2022-10-31T16:09:24;11.65;;;6.40;;
9834;SDS011;4956;50.996;13.716;2022-10-31T16:12:45;9.48;;;6.03;;
9834;SDS011;4956;50.996;13.716;2022-10-31T16:16:12;10.63;;;6.38;;
9834;SDS011;4956;50.996;13.716;2022-10-31T16:19:35;11.52;;;6.60;;
9834;SDS011;4956;50.996;13.716;2022-10-31T16:22:56;9.60;;;6.38;;
9834;SDS011;4956;50.996;13.716;2022-10-31T16:26:17;11.95;;;7.03;;
9834;SDS011;4956;50.996;13.716;2022-10-31T16:29:41;11.13;;;7.75;;
9834;SDS011;4956;50.996;13.716;2022-10-31T16:33:03;11.30;;;7.63;;
9834;SDS011;4956;50.996;13.716;2022-10-31T16:36:28;12.38;;;7.65;;
9834;SDS011;4956;50.996;13.716;2022-10-31T16:39:53;10.25;;;7.82;;
9834;SDS011;4956;50.996;13.716;2022-10-31T16:43:14;11.25;;;6.80;;
9834;SDS011;4956;50.996;13.716;2022-10-31T16:46:37;10.77;;;7.45;;
9834;SDS011;4956;50.996;13.716;2022-10-31T16:49:59;10.27;;;7.80;;
9834;SDS011;4956;50.996;13.716;2022-10-31T16:53:20;11.23;;;7.43;;
9834;SDS011;4956;50.996;13.716;2022-10-31T16:56:41;11.15;;;7.97;;
9834;SDS011;4956;50.996;13.716;2022-10-31T17:00:02;11.40;;;7.70;;
9834;SDS011;4956;50.996;13.716;2022-10-31T17:03:23;12.52;;;7.53;;
9834;SDS011;4956;50.996;13.716;2022-10-31T17:06:43;14.50;;;8.02;;
9834;SDS011;4956;50.996;13.716;2022-10-31T17:10:04;15.23;;;7.75;;
9834;SDS011;4956;50.996;13.716;2022-10-31T17:13:26;15.75;;;9.00;;
9834;SDS011;4956;50.996;13.716;2022-10-31T17:16:48;25.50;;;16.35;;
9834;SDS011;4956;50.996;13.716;2022-10-31T17:20:28;17.80;;;11.35;;
9834;SDS011;4956;50.996;13.716;2022-10-31T17:23:49;13.05;;;8.80;;
9834;SDS011;4956;50.996;13.716;2022-10-31T17:27:10;10.75;;;7.90;;
9834;SDS011;4956;50.996;13.716;2022-10-31T17:30:31;14.65;;;9.38;;
9834;SDS011;4956;50.996;13.716;2022-10-31T17:33:53;15.05;;;11.05;;
9834;SDS011;4956;50.996;13.716;2022-10-31T17:37:14;14.43;;;9.95;;
9834;SDS011;4956;50.996;13.716;2022-10-31T17:40:35;10.23;;;7.75;;
9834;SDS011;4956;50.996;13.716;2022-10-31T17:43:57;11.43;;;7.25;;
9834;SDS011;4956;50.996;13.716;2022-10-31T17:47:18;9.45;;;6.60;;
9834;SDS011;4956;50.996;13.716;2022-10-31T17:50:38;10.93;;;6.80;;
9834;SDS011;4956;50.996;13.716;2022-10-31T17:53:58;12.38;;;7.13;;
9834;SDS011;4956;50.996;13.716;2022-10-31T17:57:19;12.00;;;7.32;;
9834;SDS011;4956;50.996;13.716;2022-10-31T18:00:39;13.40;;;7.97;;
9834;SDS011;4956;50.996;13.716;2022-10-31T18:04:00;13.48;;;8.32;;
9834;SDS011;4956;50.996;13.716;2022-10-31T18:07:20;11.23;;;8.13;;
9834;SDS011;4956;50.996;13.716;2022-10-31T18:10:40;11.00;;;7.50;;
9834;SDS011;4956;50.996;13.716;2022-10-31T18:14:01;10.25;;;7.30;;
9834;SDS011;4956;50.996;13.716;2022-10-31T18:17:21;11.20;;;7.70;;
9834;SDS011;4956;50.996;13.716;2022-10-31T18:20:41;10.30;;;6.90;;
9834;SDS011;4956;50.996;13.716;2022-10-31T18:24:02;9.05;;;6.57;;
9834;SDS011;4956;50.996;13.716;2022-10-31T18:27:23;8.70;;;6.70;;
9834;SDS011;4956;50.996;13.716;2022-10-31T18:30:43;9.82;;;6.97;;
9834;SDS011;4956;50.996;13.716;2022-10-31T18:34:04;9.73;;;6.15;;
9834;SDS011;4956;50.996;13.716;2022-10-31T18:37:24;11.15;;;6.95;;
9834;SDS011;4956;50.996;13.716;2022-10-31T18:40:45;12.18;;;7.65;;
9834;SDS011;4956;50.996;13.716;2022-10-31T18:44:05;12.07;;;8.15;;
9834;SDS011;4956;50.996;13.716;2022-10-31T18:47:26;12.80;;;8.70;;
9834;SDS011;4956;50.996;13.716;2022-10-31T18:50:46;14.38;;;8.05;;
9834;SDS011;4956;50.996;13.716;2022-10-31T18:54:07;11.13;;;7.32;;
9834;SDS011;4956;50.996;13.716;2022-10-31T18:57:27;9.18;;;6.90;;
9834;SDS011;4956;50.996;13.716;2022-10-31T19:00:48;10.77;;;7.38;;
9834;SDS011;4956;50.996;13.716;2022-10-31T19:04:09;10.73;;;7.80;;
9834;SDS011;4956;50.996;13.716;2022-10-31T19:07:29;11.90;;;7.80;;
9834;SDS011;4956;50.996;13.716;2022-10-31T19:10:50;13.00;;;7.57;;
9834;SDS011;4956;50.996;13.716;2022-10-31T19:14:11;11.80;;;7.70;;
9834;SDS011;4956;50.996;13.716;2022-10-31T19:17:32;11.50;;;7.75;;
9834;SDS011;4956;50.996;13.716;2022-10-31T19:20:53;10.75;;;7.60;;
9834;SDS011;4956;50.996;13.716;2022-10-31T19:24:15;16.23;;;8.25;;
9834;SDS011;4956;50.996;13.716;2022-10-31T19:27:36;15.38;;;9.27;;
9834;SDS011;4956;50.996;13.716;2022-10-31T19:30:56;18.30;;;8.73;;
9834;SDS011;4956;50.996;13.716;2022-10-31T19:34:17;15.02;;;8.88;;
9834;SDS011;4956;50.996;13.716;2022-10-31T19:37:37;14.00;;;8.23;;
9834;SDS011;4956;50.996;13.716;2022-10-31T19:40:59;14.73;;;8.82;;
9834;SDS011;4956;50.996;13.716;2022-10-31T19:44:21;16.05;;;8.90;;
9834;SDS011;4956;50.996;13.716;2022-10-31T19:47:41;15.75;;;9.32;;
9834;SDS011;4956;50.996;13.716;2022-10-31T19:51:03;16.20;;;9.70;;
9834;SDS011;4956;50.996;13.716;2022-10-31T19:54:25;16.13;;;10.20;;
9834;SDS011;4956;50.996;13.716;2022-10-31T19:57:45;21.30;;;13.02;;
9834;SDS011;4956;50.996;13.716;2022-10-31T20:01:09;20.15;;;13.10;;
9834;SDS011;4956;50.996;13.716;2022-10-31T20:04:30;16.80;;;9.30;;
9834;SDS011;4956;50.996;13.716;2022-10-31T20:07:51;12.80;;;8.23;;
9834;SDS011;4956;50.996;13.716;2022-10-31T20:11:11;13.05;;;8.02;;
9834;SDS011;4956;50.996;13.716;2022-10-31T20:14:31;11.93;;;8.13;;
9834;SDS011;4956;50.996;13.716;2022-10-31T20:17:52;12.70;;;7.82;;
9834;SDS011;4956;50.996;13.716;2022-10-31T20:21:16;12.57;;;8.60;;
9834;SDS011;4956;50.996;13.716;2022-10-31T20:24:39;12.90;;;8.95;;
9834;SDS011;4956;50.996;13.716;2022-10-31T20:27:59;16.38;;;10.60;;
9834;SDS011;4956;50.996;13.716;2022-10-31T20:31:21;15.50;;;9.70;;
9834;SDS011;4956;50.996;13.716;2022-10-31T20:34:43;13.65;;;8.63;;
9834;SDS011;4956;50.996;13.716;2022-10-31T20:38:04;14.35;;;8.90;;
9834;SDS011;4956;50.996;13.716;2022-10-31T20:41:25;15.32;;;8.38;;
9834;SDS011;4956;50.996;13.716;2022-10-31T20:44:45;13.77;;;9.23;;
9834;SDS011;4956;50.996;13.716;2022-10-31T20:48:06;12.25;;;8.25;;
9834;SDS011;4956;50.996;13.716;2022-10-31T20:51:27;14.77;;;8.35;;
9834;SDS011;4956;50.996;13.716;2022-10-31T20:54:47;14.25;;;9.10;;
9834;SDS011;4956;50.996;13.716;2022-10-31T20:58:08;13.70;;;8.65;;
9834;SDS011;4956;50.996;13.716;2022-10-31T21:01:29;14.35;;;8.70;;
9834;SDS011;4956;50.996;13.716;2022-10-31T21:04:52;14.15;;;8.65;;
9834;SDS011;4956;50.996;13.716;2022-10-31T21:08:12;12.13;;;8.15;;
9834;SDS011;4956;50.996;13.716;2022-10-31T21:11:32;10.95;;;7.95;;
9834;SDS011;4956;50.996;13.716;2022-10-31T21:14:53;11.15;;;7.97;;
9834;SDS011;4956;50.996;13.716;2022-10-31T21:18:13;15.98;;;8.60;;
9834;SDS011;4956;50.996;13.716;2022-10-31T21:21:34;13.45;;;7.97;;
9834;SDS011;4956;50.996;13.716;2022-10-31T21:24:55;15.48;;;8.15;;
9834;SDS011;4956;50.996;13.716;2022-10-31T21:28:16;13.45;;;8.23;;
9834;SDS011;4956;50.996;13.716;2022-10-31T21:31:36;15.23;;;8.43;;
9834;SDS011;4956;50.996;13.716;2022-10-31T21:34:57;15.68;;;9.15;;
9834;SDS011;4956;50.996;13.716;2022-10-31T21:38:18;18.83;;;8.80;;
9834;SDS011;4956;50.996;13.716;2022-10-31T21:41:38;13.65;;;8.65;;
9834;SDS011;4956;50.996;13.716;2022-10-31T21:44:58;16.17;;;10.40;;
9834;SDS011;4956;50.996;13.716;2022-10-31T21:48:18;19.83;;;10.40;;
9834;SDS011;4956;50.996;13.716;2022-10-31T21:51:39;17.63;;;11.38;;
9834;SDS011;4956;50.996;13.716;2022-10-31T21:55:02;17.27;;;9.65;;
9834;SDS011;4956;50.996;13.716;2022-10-31T21:58:22;14.52;;;10.10;;
9834;SDS011;4956;50.996;13.716;2022-10-31T22:01:42;15.85;;;10.68;;
9834;SDS011;4956;50.996;13.716;2022-10-31T22:05:03;14.65;;;10.38;;
9834;SDS011;4956;50.996;13.716;2022-10-31T22:08:23;16.08;;;11.43;;
9834;SDS011;4956;50.996;13.716;2022-10-31T22:11:44;16.75;;;10.70;;
9834;SDS011;4956;50.996;13.716;2022-10-31T22:15:05;16.50;;;10.55;;
9834;SDS011;4956;50.996;13.716;2022-10-31T22:18:26;15.07;;;10.35;;
9834;SDS011;4956;50.996;13.716;2022-10-31T22:21:46;14.95;;;10.85;;
9834;SDS011;4956;50.996;13.716;2022-10-31T22:25:08;14.90;;;10.23;;
9834;SDS011;4956;50.996;13.716;2022-10-31T22:28:29;14.13;;;10.35;;
9834;SDS011;4956;50.996;13.716;2022-10-31T22:31:49;14.05;;;10.43;;
9834;SDS011;4956;50.996;13.716;2022-10-31T22:35:11;17.48;;;11.10;;